sensor_id;sensor_type;location;lat;lon;timestamp;pressure;altitude;pressure_sealevel;temperature;humidity
12897;BME280;6516;35.028;32.372;2023-11-21T00:00:17;100009.31;;;14.44;72.16
12897;BME280;6516;35.028;32.372;2023-11-21T00:02:44;100011.84;;;14.47;72.28
12897;BME280;6516;35.028;32.372;2023-11-21T00:05:13;100015.34;;;14.47;71.82
12897;BME280;6516;35.028;32.372;2023-11-21T00:07:41;100013.84;;;14.40;72.18
12897;BME280;6516;35.028;32.372;2023-11-21T00:10:10;100010.31;;;14.40;72.43
12897;BME280;6516;35.028;32.372;2023-11-21T00:12:40;100012.22;;;14.36;72.74
12897;BME280;6516;35.028;32.372;2023-11-21T00:15:09;100009.63;;;14.35;72.51
12897;BME280;6516;35.028;32.372;2023-11-21T00:17:39;100010.56;;;14.34;72.34
12897;BME280;6516;35.028;32.372;2023-11-21T00:20:08;100011.47;;;14.33;72.46
12897;BME280;6516;35.028;32.372;2023-11-21T00:22:38;100009.72;;;14.32;72.20
12897;BME280;6516;35.028;32.372;2023-11-21T00:25:07;100011.72;;;14.25;72.53
12897;BME280;6516;35.028;32.372;2023-11-21T00:27:36;100010.97;;;14.22;72.27
12897;BME280;6516;35.028;32.372;2023-11-21T00:30:05;100005.81;;;14.17;71.91
12897;BME280;6516;35.028;32.372;2023-11-21T00:32:35;100011.91;;;14.21;71.62
12897;BME280;6516;35.028;32.372;2023-11-21T00:35:05;100005.75;;;14.19;71.18
12897;BME280;6516;35.028;32.372;2023-11-21T00:37:33;100017.31;;;14.16;71.21
12897;BME280;6516;35.028;32.372;2023-11-21T00:40:01;100013.84;;;14.14;71.04
12897;BME280;6516;35.028;32.372;2023-11-21T00:42:32;100014.72;;;14.15;70.66
12897;BME280;6516;35.028;32.372;2023-11-21T00:45:00;100022.72;;;14.13;70.81
12897;BME280;6516;35.028;32.372;2023-11-21T00:47:29;100015.72;;;14.12;70.45
12897;BME280;6516;35.028;32.372;2023-11-21T00:49:56;100023.69;;;14.11;70.07
12897;BME280;6516;35.028;32.372;2023-11-21T00:52:26;100022.03;;;14.08;69.70
12897;BME280;6516;35.028;32.372;2023-11-21T00:54:54;100025.50;;;14.09;69.35
12897;BME280;6516;35.028;32.372;2023-11-21T00:57:22;100023.78;;;14.08;68.80
12897;BME280;6516;35.028;32.372;2023-11-21T00:59:49;100022.09;;;14.05;68.71
12897;BME280;6516;35.028;32.372;2023-11-21T01:02:17;100030.16;;;14.02;68.87
12897;BME280;6516;35.028;32.372;2023-11-21T01:04:45;100027.63;;;13.99;68.58
12897;BME280;6516;35.028;32.372;2023-11-21T01:07:13;100031.16;;;13.98;68.27
12897;BME280;6516;35.028;32.372;2023-11-21T01:09:42;100036.56;;;13.95;68.21
12897;BME280;6516;35.028;32.372;2023-11-21T01:12:10;100039.31;;;13.92;67.96
12897;BME280;6516;35.028;32.372;2023-11-21T01:14:38;100033.97;;;13.94;68.11
12897;BME280;6516;35.028;32.372;2023-11-21T01:17:06;100036.63;;;13.94;68.15
12897;BME280;6516;35.028;32.372;2023-11-21T01:19:34;100038.25;;;13.98;67.56
12897;BME280;6516;35.028;32.372;2023-11-21T01:22:04;100032.91;;;13.99;68.00
12897;BME280;6516;35.028;32.372;2023-11-21T01:24:32;100040.84;;;13.99;68.17
12897;BME280;6516;35.028;32.372;2023-11-21T01:27:01;100036.53;;;13.97;68.21
12897;BME280;6516;35.028;32.372;2023-11-21T01:29:30;100041.88;;;13.95;68.20
12897;BME280;6516;35.028;32.372;2023-11-21T01:31:58;100043.63;;;13.95;68.27
12897;BME280;6516;35.028;32.372;2023-11-21T01:34:25;100045.38;;;13.96;68.17
12897;BME280;6516;35.028;32.372;2023-11-21T01:36:53;100041.75;;;13.98;67.93
12897;BME280;6516;35.028;32.372;2023-11-21T01:39:21;100045.38;;;13.96;68.13
12897;BME280;6516;35.028;32.372;2023-11-21T01:41:49;100041.81;;;13.97;68.07
12897;BME280;6516;35.028;32.372;2023-11-21T01:44:19;100045.38;;;13.96;68.34
12897;BME280;6516;35.028;32.372;2023-11-21T01:46:47;100052.28;;;14.00;68.42
12897;BME280;6516;35.028;32.372;2023-11-21T01:49:15;100056.78;;;13.98;68.81
12897;BME280;6516;35.028;32.372;2023-11-21T01:51:44;100062.16;;;13.95;69.26
12897;BME280;6516;35.028;32.372;2023-11-21T01:54:15;100062.16;;;13.95;69.15
12897;BME280;6516;35.028;32.372;2023-11-21T01:56:46;100067.38;;;13.98;69.28
12897;BME280;6516;35.028;32.372;2023-11-21T01:59:17;100066.50;;;13.97;69.44
12897;BME280;6516;35.028;32.372;2023-11-21T02:01:47;100069.09;;;13.99;69.48
12897;BME280;6516;35.028;32.372;2023-11-21T02:04:16;100060.34;;;13.97;69.27
12897;BME280;6516;35.028;32.372;2023-11-21T02:06:44;100066.44;;;13.99;69.57
12897;BME280;6516;35.028;32.372;2023-11-21T02:09:12;100067.31;;;13.99;69.38
12897;BME280;6516;35.028;32.372;2023-11-21T02:11:41;100060.94;;;14.05;69.18
12897;BME280;6516;35.028;32.372;2023-11-21T02:14:09;100060.84;;;14.08;68.57
12897;BME280;6516;35.028;32.372;2023-11-21T02:16:40;100055.66;;;14.05;68.80
12897;BME280;6516;35.028;32.372;2023-11-21T02:19:13;100052.84;;;14.09;68.00
12897;BME280;6516;35.028;32.372;2023-11-21T02:21:45;100059.00;;;14.10;68.22
12897;BME280;6516;35.028;32.372;2023-11-21T02:24:18;100051.94;;;14.10;67.59
12897;BME280;6516;35.028;32.372;2023-11-21T02:26:47;100052.84;;;14.09;67.69
12897;BME280;6516;35.028;32.372;2023-11-21T02:29:17;100060.81;;;14.09;67.06
12897;BME280;6516;35.028;32.372;2023-11-21T02:31:47;100069.59;;;14.10;66.55
12897;BME280;6516;35.028;32.372;2023-11-21T02:34:20;100062.75;;;14.04;66.90
12897;BME280;6516;35.028;32.372;2023-11-21T02:36:49;100061.06;;;14.02;66.72
12897;BME280;6516;35.028;32.372;2023-11-21T02:39:18;100064.47;;;14.05;66.65
12897;BME280;6516;35.028;32.372;2023-11-21T02:41:47;100067.06;;;14.07;66.20
12897;BME280;6516;35.028;32.372;2023-11-21T02:44:15;100072.53;;;14.01;66.76
12897;BME280;6516;35.028;32.372;2023-11-21T02:46:43;100070.19;;;13.92;67.20
12897;BME280;6516;35.028;32.372;2023-11-21T02:49:11;100072.34;;;13.81;67.59
12897;BME280;6516;35.028;32.372;2023-11-21T02:51:38;100071.00;;;13.68;68.48
12897;BME280;6516;35.028;32.372;2023-11-21T02:54:06;100075.03;;;13.52;69.48
12897;BME280;6516;35.028;32.372;2023-11-21T02:56:35;100080.41;;;13.49;69.84
12897;BME280;6516;35.028;32.372;2023-11-21T02:59:03;100084.91;;;13.47;70.03
12897;BME280;6516;35.028;32.372;2023-11-21T03:01:33;100080.69;;;13.40;70.28
12897;BME280;6516;35.028;32.372;2023-11-21T03:04:00;100089.53;;;13.39;70.97
12897;BME280;6516;35.028;32.372;2023-11-21T03:06:28;100095.94;;;13.30;71.04
12897;BME280;6516;35.028;32.372;2023-11-21T03:08:56;100107.84;;;13.17;71.68
12897;BME280;6516;35.028;32.372;2023-11-21T03:11:26;100106.00;;;13.19;71.61
12897;BME280;6516;35.028;32.372;2023-11-21T03:13:55;100120.94;;;13.20;71.66
12897;BME280;6516;35.028;32.372;2023-11-21T03:16:23;100113.03;;;13.19;71.88
12897;BME280;6516;35.028;32.372;2023-11-21T03:18:51;100123.81;;;13.13;72.45
12897;BME280;6516;35.028;32.372;2023-11-21T03:21:19;100124.84;;;13.07;72.79
12897;BME280;6516;35.028;32.372;2023-11-21T03:23:47;100137.31;;;13.02;73.08
12897;BME280;6516;35.028;32.372;2023-11-21T03:26:14;100137.47;;;12.96;73.59
12897;BME280;6516;35.028;32.372;2023-11-21T03:28:42;100142.03;;;12.90;73.70
12897;BME280;6516;35.028;32.372;2023-11-21T03:31:11;100152.78;;;12.84;73.94
12897;BME280;6516;35.028;32.372;2023-11-21T03:33:39;100144.19;;;12.76;74.23
12897;BME280;6516;35.028;32.372;2023-11-21T03:36:08;100152.13;;;12.76;74.24
12897;BME280;6516;35.028;32.372;2023-11-21T03:38:36;100155.81;;;12.69;74.31
12897;BME280;6516;35.028;32.372;2023-11-21T03:41:05;100148.94;;;12.63;74.76
12897;BME280;6516;35.028;32.372;2023-11-21T03:43:33;100149.97;;;12.58;75.25
12897;BME280;6516;35.028;32.372;2023-11-21T03:46:01;100154.41;;;12.56;75.37
12897;BME280;6516;35.028;32.372;2023-11-21T03:48:30;100166.94;;;12.48;75.88
12897;BME280;6516;35.028;32.372;2023-11-21T03:50:58;100162.56;;;12.47;76.21
12897;BME280;6516;35.028;32.372;2023-11-21T03:53:26;100173.22;;;12.44;76.36
12897;BME280;6516;35.028;32.372;2023-11-21T03:55:54;100181.34;;;12.35;76.83
12897;BME280;6516;35.028;32.372;2023-11-21T03:58:21;100189.31;;;12.33;76.91
12897;BME280;6516;35.028;32.372;2023-11-21T04:00:49;100191.69;;;12.44;76.59
12897;BME280;6516;35.028;32.372;2023-11-21T04:03:17;100192.69;;;12.38;76.93
12897;BME280;6516;35.028;32.372;2023-11-21T04:05:46;100200.66;;;12.37;77.22
12897;BME280;6516;35.028;32.372;2023-11-21T04:08:14;100200.47;;;12.44;76.93
12897;BME280;6516;35.028;32.372;2023-11-21T04:10:42;100202.28;;;12.42;77.00
12897;BME280;6516;35.028;32.372;2023-11-21T04:13:10;100210.47;;;12.32;77.22
12897;BME280;6516;35.028;32.372;2023-11-21T04:15:38;100216.31;;;12.08;78.42
12897;BME280;6516;35.028;32.372;2023-11-21T04:18:05;100218.25;;;12.00;78.79
12897;BME280;6516;35.028;32.372;2023-11-21T04:20:33;100228.75;;;12.03;78.65
12897;BME280;6516;35.028;32.372;2023-11-21T04:23:02;100220.81;;;12.04;78.37
12897;BME280;6516;35.028;32.372;2023-11-21T04:25:30;100227.69;;;12.10;77.56
12897;BME280;6516;35.028;32.372;2023-11-21T04:27:58;100231.28;;;12.06;77.50
12897;BME280;6516;35.028;32.372;2023-11-21T04:30:25;100234.88;;;12.03;76.92
12897;BME280;6516;35.028;32.372;2023-11-21T04:32:53;100239.09;;;12.12;76.53
12897;BME280;6516;35.028;32.372;2023-11-21T04:35:21;100233.59;;;12.22;75.78
12897;BME280;6516;35.028;32.372;2023-11-21T04:37:48;100240.25;;;12.37;75.00
12897;BME280;6516;35.028;32.372;2023-11-21T04:40:18;100242.44;;;12.56;73.94
12897;BME280;6516;35.028;32.372;2023-11-21T04:42:46;100243.31;;;12.57;74.19
12897;BME280;6516;35.028;32.372;2023-11-21T04:45:14;100254.72;;;12.57;74.22
12897;BME280;6516;35.028;32.372;2023-11-21T04:47:45;100247.53;;;12.62;74.17
12897;BME280;6516;35.028;32.372;2023-11-21T04:50:12;100261.47;;;12.69;74.11
12897;BME280;6516;35.028;32.372;2023-11-21T04:52:40;100256.38;;;12.61;75.06
12897;BME280;6516;35.028;32.372;2023-11-21T04:55:08;100263.34;;;12.64;75.15
12897;BME280;6516;35.028;32.372;2023-11-21T04:57:38;100265.94;;;12.67;75.39
12897;BME280;6516;35.028;32.372;2023-11-21T05:00:08;100274.59;;;12.73;75.78
12897;BME280;6516;35.028;32.372;2023-11-21T05:02:36;100274.06;;;12.59;76.12
12897;BME280;6516;35.028;32.372;2023-11-21T05:05:05;100270.50;;;12.60;76.54
12897;BME280;6516;35.028;32.372;2023-11-21T05:07:36;100269.16;;;12.78;76.58
12897;BME280;6516;35.028;32.372;2023-11-21T05:10:05;100269.84;;;12.86;77.06
12897;BME280;6516;35.028;32.372;2023-11-21T05:12:40;100275.59;;;13.04;76.68
12897;BME280;6516;35.028;32.372;2023-11-21T05:15:09;100279.06;;;13.05;77.07
12897;BME280;6516;35.028;32.372;2023-11-21T05:17:38;100283.19;;;13.16;77.31
12897;BME280;6516;35.028;32.372;2023-11-21T05:20:08;100287.25;;;13.29;77.27
12897;BME280;6516;35.028;32.372;2023-11-21T05:22:37;100286.03;;;13.41;77.24
12897;BME280;6516;35.028;32.372;2023-11-21T05:25:06;100287.25;;;13.60;76.76
12897;BME280;6516;35.028;32.372;2023-11-21T05:27:34;100285.53;;;13.89;75.72
12897;BME280;6516;35.028;32.372;2023-11-21T05:30:05;100293.72;;;14.11;74.36
12897;BME280;6516;35.028;32.372;2023-11-21T05:32:35;100297.59;;;14.30;74.94
12897;BME280;6516;35.028;32.372;2023-11-21T05:35:03;100289.06;;;14.48;74.52
12897;BME280;6516;35.028;32.372;2023-11-21T05:37:35;100297.25;;;14.68;73.95
12897;BME280;6516;35.028;32.372;2023-11-21T05:40:05;100301.63;;;14.96;71.86
12897;BME280;6516;35.028;32.372;2023-11-21T05:42:39;100298.38;;;15.13;72.62
12897;BME280;6516;35.028;32.372;2023-11-21T05:45:09;100292.34;;;15.35;72.50
12897;BME280;6516;35.028;32.372;2023-11-21T05:47:38;100286.97;;;15.61;71.13
12897;BME280;6516;35.028;32.372;2023-11-21T05:50:07;100285.22;;;15.85;71.29
12897;BME280;6516;35.028;32.372;2023-11-21T05:52:41;100292.16;;;16.12;69.25
12897;BME280;6516;35.028;32.372;2023-11-21T05:55:09;100291.28;;;16.34;67.56
12897;BME280;6516;35.028;32.372;2023-11-21T05:57:38;100291.97;;;16.62;66.87
12897;BME280;6516;35.028;32.372;2023-11-21T06:00:10;100297.94;;;16.89;64.55
12897;BME280;6516;35.028;32.372;2023-11-21T06:02:44;100300.41;;;17.15;64.67
12897;BME280;6516;35.028;32.372;2023-11-21T06:05:12;100308.28;;;17.38;62.91
12897;BME280;6516;35.028;32.372;2023-11-21T06:07:39;100306.38;;;17.61;62.65
12897;BME280;6516;35.028;32.372;2023-11-21T06:10:08;100302.28;;;17.93;59.28
12897;BME280;6516;35.028;32.372;2023-11-21T06:12:38;100304.69;;;18.17;58.03
12897;BME280;6516;35.028;32.372;2023-11-21T06:15:10;100304.22;;;18.46;56.84
12897;BME280;6516;35.028;32.372;2023-11-21T06:17:40;100308.47;;;18.69;55.22
12897;BME280;6516;35.028;32.372;2023-11-21T06:20:09;100313.69;;;18.89;53.77
12897;BME280;6516;35.028;32.372;2023-11-21T06:22:40;100315.31;;;19.10;54.14
12897;BME280;6516;35.028;32.372;2023-11-21T06:25:09;100309.38;;;19.39;53.78
12897;BME280;6516;35.028;32.372;2023-11-21T06:27:40;100313.31;;;19.66;53.45
12897;BME280;6516;35.028;32.372;2023-11-21T06:30:11;100309.34;;;19.90;52.54
12897;BME280;6516;35.028;32.372;2023-11-21T06:32:39;100307.59;;;20.06;50.14
12897;BME280;6516;35.028;32.372;2023-11-21T06:35:08;100320.59;;;20.29;50.25
12897;BME280;6516;35.028;32.372;2023-11-21T06:37:36;100315.53;;;20.56;50.63
12897;BME280;6516;35.028;32.372;2023-11-21T06:40:05;100316.97;;;20.94;49.44
12897;BME280;6516;35.028;32.372;2023-11-21T06:42:35;100322.03;;;21.14;47.87
12897;BME280;6516;35.028;32.372;2023-11-21T06:45:04;100325.47;;;21.31;46.94
12897;BME280;6516;35.028;32.372;2023-11-21T06:47:34;100322.81;;;21.45;46.67
12897;BME280;6516;35.028;32.372;2023-11-21T06:50:02;100329.13;;;21.74;46.04
12897;BME280;6516;35.028;32.372;2023-11-21T06:52:30;100327.63;;;21.70;46.52
12897;BME280;6516;35.028;32.372;2023-11-21T06:54:58;100326.00;;;21.81;46.26
12897;BME280;6516;35.028;32.372;2023-11-21T06:57:25;100332.63;;;22.04;45.17
12897;BME280;6516;35.028;32.372;2023-11-21T06:59:53;100334.75;;;22.13;45.55
12897;BME280;6516;35.028;32.372;2023-11-21T07:02:23;100335.81;;;22.38;45.65
12897;BME280;6516;35.028;32.372;2023-11-21T07:04:52;100327.75;;;22.66;45.32
12897;BME280;6516;35.028;32.372;2023-11-21T07:07:20;100341.56;;;22.74;43.86
12897;BME280;6516;35.028;32.372;2023-11-21T07:09:47;100348.28;;;22.67;42.12
12897;BME280;6516;35.028;32.372;2023-11-21T07:12:16;100351.53;;;22.72;43.04
12897;BME280;6516;35.028;32.372;2023-11-21T07:14:45;100345.81;;;22.91;42.68
12897;BME280;6516;35.028;32.372;2023-11-21T07:17:13;100345.66;;;23.20;41.65
12897;BME280;6516;35.028;32.372;2023-11-21T07:19:43;100359.91;;;23.08;41.36
12897;BME280;6516;35.028;32.372;2023-11-21T07:22:12;100356.97;;;23.25;41.99
12897;BME280;6516;35.028;32.372;2023-11-21T07:24:42;100356.41;;;23.20;41.34
12897;BME280;6516;35.028;32.372;2023-11-21T07:27:10;100359.94;;;22.80;41.45
12897;BME280;6516;35.028;32.372;2023-11-21T07:29:38;100362.78;;;23.05;41.93
12897;BME280;6516;35.028;32.372;2023-11-21T07:32:06;100371.28;;;23.26;41.16
12897;BME280;6516;35.028;32.372;2023-11-21T07:34:35;100367.94;;;23.22;41.57
12897;BME280;6516;35.028;32.372;2023-11-21T07:37:03;100370.41;;;23.11;41.85
12897;BME280;6516;35.028;32.372;2023-11-21T07:39:32;100369.84;;;23.20;40.82
12897;BME280;6516;35.028;32.372;2023-11-21T07:42:00;100368.00;;;23.35;41.74
12897;BME280;6516;35.028;32.372;2023-11-21T07:44:28;100372.84;;;23.42;41.81
12897;BME280;6516;35.028;32.372;2023-11-21T07:46:56;100365.69;;;23.55;41.46
12897;BME280;6516;35.028;32.372;2023-11-21T07:49:23;100372.69;;;23.58;42.01
12897;BME280;6516;35.028;32.372;2023-11-21T07:51:52;100367.13;;;23.61;41.83
12897;BME280;6516;35.028;32.372;2023-11-21T07:54:20;100373.59;;;23.71;42.34
12897;BME280;6516;35.028;32.372;2023-11-21T07:56:49;100371.44;;;23.88;43.01
12897;BME280;6516;35.028;32.372;2023-11-21T07:59:17;100376.38;;;24.08;43.39
12897;BME280;6516;35.028;32.372;2023-11-21T08:01:45;100370.56;;;24.14;43.49
12897;BME280;6516;35.028;32.372;2023-11-21T08:04:12;100366.47;;;24.34;43.01
12897;BME280;6516;35.028;32.372;2023-11-21T08:06:40;100366.25;;;24.24;42.66
12897;BME280;6516;35.028;32.372;2023-11-21T08:09:08;100363.56;;;24.24;42.20
12897;BME280;6516;35.028;32.372;2023-11-21T08:11:38;100352.34;;;24.18;42.26
12897;BME280;6516;35.028;32.372;2023-11-21T08:14:07;100363.97;;;24.43;43.17
12897;BME280;6516;35.028;32.372;2023-11-21T08:16:35;100355.47;;;24.24;42.57
12897;BME280;6516;35.028;32.372;2023-11-21T08:19:03;100352.16;;;24.46;42.75
12897;BME280;6516;35.028;32.372;2023-11-21T08:21:31;100344.06;;;24.33;42.66
12897;BME280;6516;35.028;32.372;2023-11-21T08:23:59;100349.03;;;24.39;42.62
12897;BME280;6516;35.028;32.372;2023-11-21T08:26:28;100346.66;;;24.60;42.01
12897;BME280;6516;35.028;32.372;2023-11-21T08:28:56;100343.16;;;24.70;41.68
12897;BME280;6516;35.028;32.372;2023-11-21T08:31:26;100345.81;;;24.95;41.31
12897;BME280;6516;35.028;32.372;2023-11-21T08:33:54;100343.59;;;25.13;40.20
12897;BME280;6516;35.028;32.372;2023-11-21T08:36:22;100339.66;;;25.29;39.39
12897;BME280;6516;35.028;32.372;2023-11-21T08:38:51;100344.00;;;25.19;39.52
12897;BME280;6516;35.028;32.372;2023-11-21T08:41:19;100344.13;;;25.41;39.58
12897;BME280;6516;35.028;32.372;2023-11-21T08:43:47;100340.06;;;25.36;39.48
12897;BME280;6516;35.028;32.372;2023-11-21T08:46:16;100344.41;;;25.49;38.58
12897;BME280;6516;35.028;32.372;2023-11-21T08:49:09;100340.03;;;25.59;38.31
12897;BME280;6516;35.028;32.372;2023-11-21T08:51:37;100334.31;;;25.64;37.98
12897;BME280;6516;35.028;32.372;2023-11-21T08:54:05;100340.41;;;25.55;38.27
12897;BME280;6516;35.028;32.372;2023-11-21T08:56:34;100332.66;;;25.50;38.95
12897;BME280;6516;35.028;32.372;2023-11-21T08:59:02;100336.81;;;25.89;39.66
12897;BME280;6516;35.028;32.372;2023-11-21T09:01:30;100345.84;;;26.00;40.13
12897;BME280;6516;35.028;32.372;2023-11-21T09:03:58;100333.75;;;25.82;40.24
12897;BME280;6516;35.028;32.372;2023-11-21T09:06:27;100336.19;;;25.04;41.30
12897;BME280;6516;35.028;32.372;2023-11-21T09:08:55;100331.72;;;25.28;41.05
12897;BME280;6516;35.028;32.372;2023-11-21T09:11:23;100325.38;;;25.40;39.25
12897;BME280;6516;35.028;32.372;2023-11-21T09:13:57;100322.94;;;25.37;39.83
12897;BME280;6516;35.028;32.372;2023-11-21T09:16:24;100322.75;;;25.51;38.68
12897;BME280;6516;35.028;32.372;2023-11-21T09:18:52;100323.81;;;25.25;39.30
12897;BME280;6516;35.028;32.372;2023-11-21T09:21:20;100326.97;;;25.42;40.27
12897;BME280;6516;35.028;32.372;2023-11-21T09:23:50;100317.94;;;25.43;39.56
12897;BME280;6516;35.028;32.372;2023-11-21T09:26:18;100318.63;;;25.34;39.73
12897;BME280;6516;35.028;32.372;2023-11-21T09:28:46;100315.84;;;25.23;38.99
12897;BME280;6516;35.028;32.372;2023-11-21T09:31:14;100317.34;;;25.51;37.97
12897;BME280;6516;35.028;32.372;2023-11-21T09:33:42;100308.75;;;25.46;37.84
12897;BME280;6516;35.028;32.372;2023-11-21T09:36:14;100309.16;;;25.63;37.65
12897;BME280;6516;35.028;32.372;2023-11-21T09:38:41;100313.34;;;25.67;37.36
12897;BME280;6516;35.028;32.372;2023-11-21T09:41:16;100305.38;;;25.77;37.29
12897;BME280;6516;35.028;32.372;2023-11-21T09:43:47;100296.47;;;25.87;37.64
12897;BME280;6516;35.028;32.372;2023-11-21T09:46:20;100304.63;;;26.09;37.65
12897;BME280;6516;35.028;32.372;2023-11-21T09:48:50;100285.59;;;26.22;37.04
12897;BME280;6516;35.028;32.372;2023-11-21T09:51:19;100286.84;;;26.40;36.56
12897;BME280;6516;35.028;32.372;2023-11-21T09:53:50;100286.09;;;26.16;36.37
12897;BME280;6516;35.028;32.372;2023-11-21T09:56:20;100289.41;;;26.19;35.48
12897;BME280;6516;35.028;32.372;2023-11-21T09:58:52;100287.22;;;26.02;36.07
12897;BME280;6516;35.028;32.372;2023-11-21T10:01:23;100279.13;;;26.02;36.61
12897;BME280;6516;35.028;32.372;2023-11-21T10:03:53;100280.59;;;26.17;36.99
12897;BME280;6516;35.028;32.372;2023-11-21T10:06:22;100266.84;;;26.31;35.95
12897;BME280;6516;35.028;32.372;2023-11-21T10:08:52;100274.56;;;26.36;34.72
12897;BME280;6516;35.028;32.372;2023-11-21T10:11:25;100276.66;;;26.43;34.90
12897;BME280;6516;35.028;32.372;2023-11-21T10:13:53;100272.38;;;26.41;34.66
12897;BME280;6516;35.028;32.372;2023-11-21T10:16:25;100270.41;;;26.21;33.84
12897;BME280;6516;35.028;32.372;2023-11-21T10:18:54;100263.53;;;26.28;34.31
12897;BME280;6516;35.028;32.372;2023-11-21T10:21:23;100261.31;;;26.11;34.79
12897;BME280;6516;35.028;32.372;2023-11-21T10:23:52;100260.09;;;26.37;34.98
12897;BME280;6516;35.028;32.372;2023-11-21T10:26:24;100269.91;;;26.38;33.95
12897;BME280;6516;35.028;32.372;2023-11-21T10:28:57;100266.47;;;26.25;33.84
12897;BME280;6516;35.028;32.372;2023-11-21T10:31:27;100265.38;;;26.05;33.64
12897;BME280;6516;35.028;32.372;2023-11-21T10:33:57;100249.78;;;26.20;34.90
12897;BME280;6516;35.028;32.372;2023-11-21T10:36:38;100253.72;;;26.38;34.84
12897;BME280;6516;35.028;32.372;2023-11-21T10:39:07;100248.56;;;26.57;34.36
12897;BME280;6516;35.028;32.372;2023-11-21T10:41:37;100249.16;;;26.60;33.91
12897;BME280;6516;35.028;32.372;2023-11-21T10:44:05;100254.19;;;26.65;32.78
12897;BME280;6516;35.028;32.372;2023-11-21T10:46:35;100246.44;;;26.60;32.88
12897;BME280;6516;35.028;32.372;2023-11-21T10:49:02;100253.44;;;26.63;32.94
12897;BME280;6516;35.028;32.372;2023-11-21T10:51:32;100252.22;;;26.56;32.92
12897;BME280;6516;35.028;32.372;2023-11-21T10:54:00;100245.50;;;26.61;33.47
12897;BME280;6516;35.028;32.372;2023-11-21T10:56:28;100245.09;;;26.66;33.23
12897;BME280;6516;35.028;32.372;2023-11-21T10:58:57;100241.53;;;26.65;33.14
12897;BME280;6516;35.028;32.372;2023-11-21T11:01:26;100235.88;;;26.79;33.50
12897;BME280;6516;35.028;32.372;2023-11-21T11:03:57;100242.47;;;26.86;33.50
12897;BME280;6516;35.028;32.372;2023-11-21T11:06:26;100241.13;;;26.81;32.54
12897;BME280;6516;35.028;32.372;2023-11-21T11:08:56;100240.28;;;26.80;32.66
12897;BME280;6516;35.028;32.372;2023-11-21T11:11:24;100228.88;;;26.66;34.29
12897;BME280;6516;35.028;32.372;2023-11-21T11:13:53;100240.06;;;26.72;32.28
12897;BME280;6516;35.028;32.372;2023-11-21T11:16:23;100234.69;;;26.61;31.34
12897;BME280;6516;35.028;32.372;2023-11-21T11:18:52;100240.69;;;26.65;33.35
12897;BME280;6516;35.028;32.372;2023-11-21T11:21:27;100233.94;;;26.59;35.38
12897;BME280;6516;35.028;32.372;2023-11-21T11:24:17;100232.94;;;26.49;35.79
12897;BME280;6516;35.028;32.372;2023-11-21T11:27:14;100232.34;;;26.46;36.34
12897;BME280;6516;35.028;32.372;2023-11-21T11:29:59;100234.69;;;26.28;36.61
12897;BME280;6516;35.028;32.372;2023-11-21T11:32:43;100244.03;;;26.13;36.27
12897;BME280;6516;35.028;32.372;2023-11-21T11:35:19;100246.84;;;26.01;37.54
12897;BME280;6516;35.028;32.372;2023-11-21T11:37:53;100255.38;;;25.84;37.79
12897;BME280;6516;35.028;32.372;2023-11-21T11:40:22;100250.31;;;25.79;38.00
12897;BME280;6516;35.028;32.372;2023-11-21T11:42:57;100250.56;;;25.65;38.54
12897;BME280;6516;35.028;32.372;2023-11-21T11:45:32;100241.91;;;25.38;36.21
12897;BME280;6516;35.028;32.372;2023-11-21T11:48:03;100243.13;;;25.34;35.71
12897;BME280;6516;35.028;32.372;2023-11-21T11:50:32;100255.28;;;25.40;35.31
12897;BME280;6516;35.028;32.372;2023-11-21T11:53:12;100249.28;;;25.47;35.62
12897;BME280;6516;35.028;32.372;2023-11-21T11:55:41;100250.06;;;25.60;35.65
12897;BME280;6516;35.028;32.372;2023-11-21T11:58:10;100254.09;;;25.55;35.02
12897;BME280;6516;35.028;32.372;2023-11-21T12:00:38;100251.38;;;25.44;35.71
12897;BME280;6516;35.028;32.372;2023-11-21T12:03:09;100254.84;;;25.57;35.63
12897;BME280;6516;35.028;32.372;2023-11-21T12:05:37;100261.81;;;25.59;35.41
12897;BME280;6516;35.028;32.372;2023-11-21T12:08:06;100262.03;;;25.45;35.42
12897;BME280;6516;35.028;32.372;2023-11-21T12:10:35;100267.16;;;25.37;36.00
12897;BME280;6516;35.028;32.372;2023-11-21T12:13:05;100270.22;;;25.33;35.78
12897;BME280;6516;35.028;32.372;2023-11-21T12:15:34;100271.19;;;25.08;36.13
12897;BME280;6516;35.028;32.372;2023-11-21T12:18:03;100278.63;;;25.05;36.34
12897;BME280;6516;35.028;32.372;2023-11-21T12:20:33;100272.88;;;25.09;35.61
12897;BME280;6516;35.028;32.372;2023-11-21T12:23:04;100274.03;;;24.58;36.10
12897;BME280;6516;35.028;32.372;2023-11-21T12:25:34;100274.59;;;24.38;37.31
12897;BME280;6516;35.028;32.372;2023-11-21T12:28:03;100272.00;;;24.49;36.84
12897;BME280;6516;35.028;32.372;2023-11-21T12:30:32;100273.84;;;24.49;36.41
12897;BME280;6516;35.028;32.372;2023-11-21T12:33:02;100274.19;;;24.44;36.81
12897;BME280;6516;35.028;32.372;2023-11-21T12:35:34;100275.47;;;24.39;37.72
12897;BME280;6516;35.028;32.372;2023-11-21T12:38:04;100281.31;;;24.33;36.95
12897;BME280;6516;35.028;32.372;2023-11-21T12:40:34;100286.19;;;24.03;37.72
12897;BME280;6516;35.028;32.372;2023-11-21T12:43:02;100284.13;;;23.94;37.78
12897;BME280;6516;35.028;32.372;2023-11-21T12:45:30;100293.78;;;23.71;38.64
12897;BME280;6516;35.028;32.372;2023-11-21T12:47:59;100287.09;;;23.52;38.66
12897;BME280;6516;35.028;32.372;2023-11-21T12:50:30;100298.53;;;23.29;38.91
12897;BME280;6516;35.028;32.372;2023-11-21T12:53:03;100297.81;;;23.39;39.17
12897;BME280;6516;35.028;32.372;2023-11-21T12:55:32;100294.72;;;23.45;38.96
12897;BME280;6516;35.028;32.372;2023-11-21T12:58:03;100303.75;;;23.44;38.89
12897;BME280;6516;35.028;32.372;2023-11-21T13:00:36;100303.38;;;23.36;38.78